createdAt,value
2022-09-10T00:01:52.348Z,100765.31
2022-09-10T00:04:18.769Z,100764.19
2022-09-10T00:06:45.267Z,100761.09
2022-09-10T00:09:12.981Z,100764.56
2022-09-10T00:11:41.592Z,100763.69
2022-09-10T00:14:13.550Z,100771.38
2022-09-10T00:16:40.798Z,100766.19
2022-09-10T00:19:07.243Z,100763.69
2022-09-10T00:21:34.557Z,100762.72
2022-09-10T00:24:01.939Z,100754.19
2022-09-10T00:26:30.890Z,100764.09
2022-09-10T00:29:01.263Z,100758.78
2022-09-10T00:31:29.563Z,100765.94
2022-09-10T00:33:58.354Z,100767.16
2022-09-10T00:36:30.472Z,100769.88
2022-09-10T00:39:00.261Z,100771.84
2022-09-10T00:41:27.174Z,100764.72
2022-09-10T00:43:53.520Z,100779.03
2022-09-10T00:46:50.110Z,100765.56
2022-09-10T00:49:32.501Z,100771.72
2022-09-10T00:52:00.727Z,100766.19
2022-09-10T00:54:29.417Z,100770.75
2022-09-10T00:56:59.468Z,100774.44
2022-09-10T00:59:26.949Z,100771.84
2022-09-10T01:01:54.908Z,100772.13
2022-09-10T01:04:21.754Z,100779.25
2022-09-10T01:06:51.640Z,100781.63
2022-09-10T01:09:20.138Z,100785.31
2022-09-10T01:12:09.049Z,100787.19
2022-09-10T01:15:05.261Z,100783.97
2022-09-10T01:17:45.942Z,100792.22
2022-09-10T01:20:30.288Z,100780.28
2022-09-10T01:23:26.557Z,100783.97
2022-09-10T01:26:22.914Z,100778.53
2022-09-10T01:29:01.310Z,100774.56
2022-09-10T01:31:37.359Z,100774.56
2022-09-10T01:34:17.353Z,100767.16
2022-09-10T01:36:48.062Z,100776.03
2022-09-10T01:39:16.921Z,100776.03
2022-09-10T01:41:43.980Z,100769.88
2022-09-10T01:44:31.216Z,100777.50
2022-09-10T01:47:12.789Z,100780.84
2022-09-10T01:49:54.524Z,100777.00
2022-09-10T01:52:39.465Z,100774.56
2022-09-10T01:55:17.345Z,100781.97
2022-09-10T01:57:52.988Z,100778.75
2022-09-10T02:00:21.945Z,100773.44
2022-09-10T02:02:51.917Z,100771.72
2022-09-10T02:05:21.541Z,100774.56
2022-09-10T02:07:52.209Z,100770.59
2022-09-10T02:10:18.666Z,100770.88
2022-09-10T02:12:45.707Z,100773.81
2022-09-10T02:15:13.966Z,100772.34
2022-09-10T02:17:40.937Z,100778.03
2022-09-10T02:20:11.081Z,100782.00
2022-09-10T02:22:41.789Z,100782.84
2022-09-10T02:25:09.845Z,100792.25
2022-09-10T02:27:36.859Z,100784.94
2022-09-10T02:30:04.927Z,100795.34
2022-09-10T02:32:31.274Z,100796.53
2022-09-10T02:34:58.621Z,100792.09
2022-09-10T02:37:25.104Z,100794.09
2022-09-10T02:39:51.551Z,100784.94
2022-09-10T02:42:18.024Z,100785.19
2022-09-10T02:44:44.983Z,100785.94
2022-09-10T02:47:11.613Z,100788.75
2022-09-10T02:49:37.988Z,100786.91
2022-09-10T02:52:04.531Z,100787.91
2022-09-10T02:54:30.921Z,100793.22
2022-09-10T02:56:57.282Z,100795.31
2022-09-10T02:59:25.006Z,100800.00
2022-09-10T03:01:51.737Z,100790.22
2022-09-10T03:04:18.177Z,100802.16
2022-09-10T03:06:45.033Z,100797.59
2022-09-10T03:09:11.365Z,100796.84
2022-09-10T03:11:40.605Z,100790.84
2022-09-10T03:14:09.901Z,100795.75
2022-09-10T03:16:36.439Z,100793.50
2022-09-10T03:19:02.874Z,100795.38
2022-09-10T03:21:29.383Z,100795.59
2022-09-10T03:23:56.987Z,100800.16
2022-09-10T03:26:25.286Z,100799.16
2022-09-10T03:28:52.205Z,100794.03
2022-09-10T03:31:18.884Z,100794.88
2022-09-10T03:33:46.172Z,100793.53
2022-09-10T03:36:15.508Z,100800.56
2022-09-10T03:38:41.946Z,100797.59
2022-09-10T03:41:08.759Z,100791.56
2022-09-10T03:43:35.626Z,100794.28
2022-09-10T03:46:02.569Z,100791.00
2022-09-10T03:48:29.543Z,100796.06
2022-09-10T03:50:56.331Z,100797.03
2022-09-10T03:53:23.716Z,100805.16
2022-09-10T03:55:50.983Z,100811.22
2022-09-10T03:58:18.048Z,100807.28
2022-09-10T04:00:46.115Z,100807.06
2022-09-10T04:03:12.789Z,100806.03
2022-09-10T04:05:40.572Z,100807.06
2022-09-10T04:08:07.538Z,100817.66
2022-09-10T04:10:34.125Z,100816.69
2022-09-10T04:13:00.464Z,100823.72
2022-09-10T04:15:26.832Z,100822.59
2022-09-10T04:17:54.394Z,100828.75
2022-09-10T04:20:22.123Z,100834.97
2022-09-10T04:22:49.542Z,100839.41
2022-09-10T04:25:16.149Z,100841.13
2022-09-10T04:27:42.988Z,100839.91
2022-09-10T04:30:10.977Z,100846.19
2022-09-10T04:32:37.640Z,100845.06
2022-09-10T04:35:05.881Z,100847.69
2022-09-10T04:37:32.461Z,100853.97
2022-09-10T04:39:58.835Z,100852.88
2022-09-10T04:42:25.267Z,100858.31
2022-09-10T04:44:51.624Z,100854.81
2022-09-10T04:47:18.658Z,100853.72
2022-09-10T04:49:45.009Z,100853.72
2022-09-10T04:52:13.090Z,100855.34
2022-09-10T04:54:39.884Z,100848.66
2022-09-10T04:57:06.670Z,100858.41
2022-09-10T04:59:33.205Z,100860.03
2022-09-10T05:01:59.629Z,100857.31
2022-09-10T05:04:26.181Z,100868.81
2022-09-10T05:06:53.190Z,100869.66
2022-09-10T05:09:20.549Z,100881.16
2022-09-10T05:11:47.291Z,100876.59
2022-09-10T05:14:13.973Z,100887.34
2022-09-10T05:16:40.703Z,100877.22
2022-09-10T05:19:07.327Z,100886.09
2022-09-10T05:21:33.685Z,100881.63
2022-09-10T05:24:00.276Z,100883.50
2022-09-10T05:26:27.737Z,100881.63
2022-09-10T05:28:54.846Z,100883.38
2022-09-10T05:31:21.332Z,100886.97
2022-09-10T05:33:47.783Z,100882.47
2022-09-10T05:36:14.725Z,100881.25
2022-09-10T05:38:41.520Z,100878.03
2022-09-10T05:41:11.174Z,100878.28
2022-09-10T05:43:37.732Z,100887.66
2022-09-10T05:46:04.929Z,100885.16
2022-09-10T05:48:31.406Z,100896.63
2022-09-10T05:50:57.907Z,100898.59
2022-09-10T05:53:24.580Z,100903.91
2022-09-10T05:55:50.930Z,100907.75
2022-09-10T05:58:17.322Z,100921.16
2022-09-10T06:00:43.931Z,100914.88
2022-09-10T06:03:10.565Z,100915.88
2022-09-10T06:05:37.037Z,100920.84
2022-09-10T06:10:42.019Z,100926.69
2022-09-10T06:13:09.079Z,100926.47
2022-09-10T06:15:36.027Z,100931.56
2022-09-10T06:18:02.532Z,100923.78
2022-09-10T06:20:28.871Z,100927.47
2022-09-10T06:22:55.232Z,100933.16
2022-09-10T06:25:21.563Z,100926.25
2022-09-10T06:27:47.974Z,100944.38
2022-09-10T06:30:14.406Z,100931.91
2022-09-10T06:32:40.751Z,100934.75
2022-09-10T06:35:07.357Z,100941.03
2022-09-10T06:37:34.391Z,100951.31
2022-09-10T06:40:01.283Z,100952.81
2022-09-10T06:42:27.713Z,100956.38
2022-09-10T06:44:54.107Z,100959.44
2022-09-10T06:48:01.044Z,100957.78
2022-09-10T06:50:07.404Z,100955.94
2022-09-10T06:52:33.759Z,100960.72
2022-09-10T06:55:00.189Z,100970.22
2022-09-10T06:57:26.711Z,100970.31
2022-09-10T06:59:53.077Z,100968.09
2022-09-10T07:02:19.442Z,100972.81
2022-09-10T07:04:45.836Z,100966.03
2022-09-10T07:07:12.188Z,100982.19
2022-09-10T07:09:38.559Z,100989.59
2022-09-10T07:12:05.298Z,100991.28
2022-09-10T07:14:33.202Z,100984.03
2022-09-10T07:16:59.542Z,100992.88
2022-09-10T07:19:25.882Z,100998.06
2022-09-10T07:21:52.260Z,100998.19
2022-09-10T07:24:19.975Z,101003.44
2022-09-10T07:26:46.996Z,101002.94
2022-09-10T07:29:13.346Z,101009.13
2022-09-10T07:31:41.494Z,101008.69
2022-09-10T07:34:08.560Z,101020.06
2022-09-10T07:36:35.013Z,101016.34
2022-09-10T07:39:01.856Z,101024.41
2022-09-10T07:41:29.716Z,101032.16
2022-09-10T07:43:56.248Z,101017.78
2022-09-10T07:46:25.127Z,101027.59
2022-09-10T07:48:56.759Z,101029.31
2022-09-10T07:51:24.735Z,101021.25
2022-09-10T07:53:55.856Z,101025.56
2022-09-10T07:56:25.777Z,101028.09
2022-09-10T07:58:52.976Z,101030.78
2022-09-10T08:01:19.934Z,101032.81
2022-09-10T08:03:46.772Z,101038.34
2022-09-10T08:06:13.646Z,101043.69
2022-09-10T08:08:40.616Z,101042.78
2022-09-10T08:11:12.682Z,101043.19
2022-09-10T08:13:42.637Z,101043.75
2022-09-10T08:16:12.169Z,101049.53
2022-09-10T08:18:39.392Z,101059.03
2022-09-10T08:21:08.517Z,101060.59
2022-09-10T08:23:35.571Z,101055.28
2022-09-10T08:26:04.410Z,101052.56
2022-09-10T08:28:30.894Z,101069.31
2022-09-10T08:31:11.658Z,101064.59
2022-09-10T08:33:39.720Z,101072.53
2022-09-10T08:36:08.683Z,101076.50
2022-09-10T08:38:37.586Z,101078.88
2022-09-10T08:41:17.321Z,101089.25
2022-09-10T08:43:51.789Z,101093.25
2022-09-10T08:46:28.033Z,101092.78
2022-09-10T08:49:10.962Z,101102.03
2022-09-10T08:51:59.021Z,101106.31
2022-09-10T08:54:54.041Z,101108.31
2022-09-10T08:57:45.234Z,101102.50
2022-09-10T09:00:15.004Z,101119.41
2022-09-10T09:02:52.238Z,101115.19
2022-09-10T09:05:21.610Z,101121.88
2022-09-10T09:07:49.270Z,101124.91
2022-09-10T09:10:24.751Z,101128.34
2022-09-10T09:13:16.269Z,101127.28
2022-09-10T09:15:56.973Z,101130.72
2022-09-10T09:18:34.356Z,101129.06
2022-09-10T09:21:12.978Z,101131.25
2022-09-10T09:24:12.771Z,101137.84
2022-09-10T09:26:44.849Z,101127.88
2022-09-10T09:29:16.188Z,101133.59
2022-09-10T09:31:57.607Z,101139.09
2022-09-10T09:34:34.572Z,101144.19
2022-09-10T09:37:04.592Z,101155.56
2022-09-10T09:40:06.821Z,101162.25
2022-09-10T09:42:52.073Z,101166.88
2022-09-10T09:45:28.227Z,101160.00
2022-09-10T09:47:55.738Z,101174.97
2022-09-10T09:50:22.843Z,101174.56
2022-09-10T09:52:53.949Z,101171.59
2022-09-10T09:55:29.136Z,101176.13
2022-09-10T09:58:21.424Z,101171.38
2022-09-10T10:00:49.577Z,101174.34
2022-09-10T10:03:21.329Z,101186.78
2022-09-10T10:05:48.624Z,101173.25
2022-09-10T10:08:41.347Z,101177.00
2022-09-10T10:11:08.714Z,101183.13
2022-09-10T10:13:40.962Z,101183.56
2022-09-10T10:16:20.807Z,101195.69
2022-09-10T10:18:47.522Z,101185.16
2022-09-10T10:21:20.048Z,101182.66
2022-09-10T10:23:47.476Z,101188.09
2022-09-10T10:26:20.209Z,101192.41
2022-09-10T10:28:51.994Z,101202.34
2022-09-10T10:31:19.792Z,101198.53
2022-09-10T10:34:04.682Z,101200.09
2022-09-10T10:37:04.162Z,101209.88
2022-09-10T10:39:50.301Z,101205.19
2022-09-10T10:42:22.718Z,101203.38
2022-09-10T10:44:54.763Z,101215.56
2022-09-10T10:47:30.069Z,101213.47
2022-09-10T10:50:18.299Z,101222.72
2022-09-10T10:52:54.125Z,101215.53
2022-09-10T10:55:25.221Z,101223.84
2022-09-10T10:57:51.513Z,101220.13
2022-09-10T11:00:20.287Z,101219.88
2022-09-10T11:03:02.540Z,101220.25
2022-09-10T11:05:38.485Z,101215.06
2022-09-10T11:08:19.338Z,101220.00
2022-09-10T11:10:53.806Z,101216.09
2022-09-10T11:13:23.079Z,101223.13
2022-09-10T11:16:25.564Z,101219.88
2022-09-10T11:19:17.841Z,101215.91
2022-09-10T11:22:04.619Z,101219.28
2022-09-10T11:24:47.168Z,101222.22
2022-09-10T11:27:23.074Z,101224.34
2022-09-10T11:29:57.964Z,101227.44
2022-09-10T11:32:46.497Z,101234.22
2022-09-10T11:35:34.091Z,101237.13
2022-09-10T11:38:20.645Z,101228.03
2022-09-10T11:41:00.726Z,101236.38
2022-09-10T11:43:38.533Z,101237.84
2022-09-10T11:46:09.952Z,101242.00
2022-09-10T11:48:42.158Z,101245.06
2022-09-10T11:51:22.324Z,101249.72
2022-09-10T11:53:50.092Z,101253.72
2022-09-10T11:56:35.358Z,101257.94
2022-09-10T11:59:26.988Z,101260.00
2022-09-10T12:02:14.859Z,101255.75
2022-09-10T12:04:50.098Z,101257.53
2022-09-10T12:07:25.689Z,101263.13
2022-09-10T12:09:54.933Z,101249.81
2022-09-10T12:12:26.412Z,101265.41
2022-09-10T12:14:53.905Z,101269.16
2022-09-10T12:17:27.168Z,101258.69
2022-09-10T12:19:57.256Z,101270.91
2022-09-10T12:22:29.497Z,101268.41
2022-09-10T12:25:02.039Z,101269.84
2022-09-10T12:27:48.976Z,101268.00
2022-09-10T12:30:24.592Z,101280.91
2022-09-10T12:32:53.258Z,101275.84
2022-09-10T12:35:31.589Z,101276.28
2022-09-10T12:38:43.604Z,101270.19
2022-09-10T12:41:35.345Z,101279.03
2022-09-10T12:44:37.591Z,101289.47
2022-09-10T12:47:16.411Z,101286.94
2022-09-10T12:49:59.104Z,101284.19
2022-09-10T12:52:34.558Z,101292.25
2022-09-10T12:55:28.897Z,101291.25
2022-09-10T12:58:03.121Z,101293.84
2022-09-10T13:00:54.698Z,101290.84
2022-09-10T13:03:24.566Z,101286.06
2022-09-10T13:05:54.530Z,101281.00
2022-09-10T13:08:41.432Z,101290.88
2022-09-10T13:11:15.877Z,101292.09
2022-09-10T13:13:54.855Z,101303.13
2022-09-10T13:16:27.153Z,101297.63
2022-09-10T13:19:13.408Z,101300.78
2022-09-10T13:21:42.763Z,101299.81
2022-09-10T13:24:34.518Z,101302.78
2022-09-10T13:27:35.478Z,101294.56
2022-09-10T13:30:22.439Z,101297.91
2022-09-10T13:32:55.149Z,101298.00
2022-09-10T13:35:41.289Z,101301.50
2022-09-10T13:38:13.749Z,101296.81
2022-09-10T13:41:14.308Z,101307.19
2022-09-10T13:44:15.925Z,101305.94
2022-09-10T13:46:46.652Z,101306.09
2022-09-10T13:49:26.968Z,101314.00
2022-09-10T13:51:56.793Z,101317.03
2022-09-10T13:54:33.131Z,101313.25
2022-09-10T13:57:14.811Z,101321.09
2022-09-10T13:59:42.932Z,101329.88
2022-09-10T14:02:09.386Z,101316.22
2022-09-10T14:04:43.140Z,101323.84
2022-09-10T14:07:20.617Z,101321.31
2022-09-10T14:09:50.254Z,101322.88
2022-09-10T14:12:19.132Z,101325.22
2022-09-10T14:14:50.197Z,101324.19
2022-09-10T14:17:23.134Z,101327.38
2022-09-10T14:19:59.135Z,101334.50
2022-09-10T14:22:26.893Z,101338.00
2022-09-10T14:24:59.697Z,101346.63
2022-09-10T14:27:35.112Z,101343.75
2022-09-10T14:30:25.673Z,101356.53
2022-09-10T14:32:52.874Z,101354.78
2022-09-10T14:35:39.218Z,101346.91
2022-09-10T14:38:24.283Z,101342.19
2022-09-10T14:41:06.672Z,101360.91
2022-09-10T14:43:38.354Z,101360.38
2022-09-10T14:46:10.240Z,101350.69
2022-09-10T14:48:42.446Z,101358.66
2022-09-10T14:51:20.463Z,101365.09
2022-09-10T14:53:51.460Z,101368.69
2022-09-10T14:56:26.414Z,101364.16
2022-09-10T14:58:59.805Z,101366.19
2022-09-10T15:01:26.937Z,101372.19
2022-09-10T15:03:53.723Z,101363.13
2022-09-10T15:06:25.649Z,101372.44
2022-09-10T15:08:55.867Z,101368.25
2022-09-10T15:11:25.154Z,101377.94
2022-09-10T15:13:52.596Z,101383.59
2022-09-10T15:16:19.061Z,101381.38
2022-09-10T15:18:45.555Z,101382.53
2022-09-10T15:21:15.048Z,101386.09
2022-09-10T15:23:42.118Z,101387.53
2022-09-10T15:26:13.683Z,101390.78
2022-09-10T15:28:41.237Z,101395.63
2022-09-10T15:31:08.516Z,101401.00
2022-09-10T15:33:35.632Z,101399.41
2022-09-10T15:36:02.347Z,101400.50
2022-09-10T15:38:28.758Z,101395.16
2022-09-10T15:41:07.442Z,101398.56
2022-09-10T15:43:37.955Z,101396.13
2022-09-10T15:46:05.858Z,101398.13
2022-09-10T15:48:33.579Z,101401.22
2022-09-10T15:51:09.136Z,101400.78
2022-09-10T15:53:36.359Z,101396.38
2022-09-10T15:56:04.215Z,101403.75
2022-09-10T15:58:31.294Z,101402.72
2022-09-10T16:01:07.390Z,101399.91
2022-09-10T16:03:34.136Z,101407.28
2022-09-10T16:06:02.380Z,101411.94
2022-09-10T16:08:29.401Z,101410.44
2022-09-10T16:10:56.477Z,101408.44
2022-09-10T16:13:23.744Z,101409.91
2022-09-10T16:15:59.829Z,101416.81
2022-09-10T16:18:27.862Z,101413.34
2022-09-10T16:20:54.282Z,101426.91
2022-09-10T16:23:21.204Z,101419.84
2022-09-10T16:25:54.870Z,101426.19
2022-09-10T16:28:21.810Z,101428.53
2022-09-10T16:30:48.202Z,101430.63
2022-09-10T16:33:14.604Z,101439.81
2022-09-10T16:35:40.963Z,101444.69
2022-09-10T16:38:07.649Z,101437.03
2022-09-10T16:40:34.054Z,101445.59
2022-09-10T16:43:00.510Z,101451.78
2022-09-10T16:45:27.214Z,101457.25
2022-09-10T16:47:55.268Z,101458.69
2022-09-10T16:50:22.206Z,101450.31
2022-09-10T16:52:49.198Z,101454.66
2022-09-10T16:55:16.495Z,101459.88
2022-09-10T16:57:42.865Z,101457.03
2022-09-10T17:00:11.093Z,101459.22
2022-09-10T17:02:37.712Z,101462.91
2022-09-10T17:05:04.556Z,101466.16
2022-09-10T17:07:30.951Z,101474.81
2022-09-10T17:10:00.758Z,101474.69
2022-09-10T17:12:27.618Z,101476.53
2022-09-10T17:14:54.018Z,101486.19
2022-09-10T17:17:20.371Z,101481.16
2022-09-10T17:19:46.902Z,101488.97
2022-09-10T17:22:13.573Z,101483.63
2022-09-10T17:24:39.949Z,101480.88
2022-09-10T17:27:06.603Z,101487.06
2022-09-10T17:29:32.979Z,101489.22
2022-09-10T17:31:59.363Z,101492.41
2022-09-10T17:34:27.045Z,101492.41
2022-09-10T17:36:54.064Z,101496.44
2022-09-10T17:39:20.675Z,101497.28
2022-09-10T17:41:48.204Z,101505.34
2022-09-10T17:44:15.133Z,101499.34
2022-09-10T17:46:42.756Z,101508.94
2022-09-10T17:49:12.137Z,101506.94
2022-09-10T17:51:38.647Z,101509.84
2022-09-10T17:54:05.297Z,101506.66
2022-09-10T17:56:31.674Z,101507.28
2022-09-10T17:59:01.537Z,101515.66
2022-09-10T18:01:33.812Z,101522.06
2022-09-10T18:04:00.533Z,101515.91
2022-09-10T18:06:28.852Z,101518.94
2022-09-10T18:09:03.614Z,101530.91
2022-09-10T18:11:32.738Z,101536.88
2022-09-10T18:14:00.081Z,101541.72
2022-09-10T18:16:29.115Z,101552.00
2022-09-10T18:19:12.914Z,101552.72
2022-09-10T18:21:40.756Z,101564.91
2022-09-10T18:24:13.355Z,101565.41
2022-09-10T18:26:43.382Z,101564.16
2022-09-10T18:29:13.732Z,101568.88
2022-09-10T18:31:43.601Z,101578.03
2022-09-10T18:34:17.460Z,101573.22
2022-09-10T18:36:46.145Z,101583.38
2022-09-10T18:39:13.140Z,101583.50
2022-09-10T18:41:45.419Z,101581.00
2022-09-10T18:44:16.638Z,101585.19
2022-09-10T18:46:45.373Z,101588.13
2022-09-10T18:49:16.831Z,101595.44
2022-09-10T18:51:46.879Z,101604.00
2022-09-10T18:54:15.069Z,101595.81
2022-09-10T18:56:42.263Z,101610.44
2022-09-10T18:59:15.111Z,101612.50
2022-09-10T19:01:43.502Z,101614.59
2022-09-10T19:04:12.850Z,101614.50
2022-09-10T19:06:42.790Z,101611.88
2022-09-10T19:09:12.044Z,101612.66
2022-09-10T19:11:41.421Z,101619.91
2022-09-10T19:14:18.021Z,101630.72
2022-09-10T19:16:46.163Z,101637.72
2022-09-10T19:19:34.850Z,101640.16
2022-09-10T19:22:06.036Z,101642.47
2022-09-10T19:24:53.385Z,101648.03
2022-09-10T19:27:19.493Z,101646.03
2022-09-10T19:29:47.242Z,101650.81
2022-09-10T19:32:15.037Z,101657.19
2022-09-10T19:34:41.473Z,101653.91
2022-09-10T19:37:07.817Z,101659.06
2022-09-10T19:39:34.209Z,101662.44
2022-09-10T19:42:00.922Z,101668.97
2022-09-10T19:44:27.344Z,101665.09
2022-09-10T19:46:53.731Z,101670.94
2022-09-10T19:49:20.069Z,101665.09
2022-09-10T19:51:46.473Z,101651.56
2022-09-10T19:54:13.889Z,101666.16
2022-09-10T19:56:42.559Z,101663.78
2022-09-10T19:59:09.809Z,101661.59
2022-09-10T20:01:40.253Z,101670.09
2022-09-10T20:04:09.935Z,101662.19
2022-09-10T20:06:37.287Z,101665.91
2022-09-10T20:09:05.630Z,101661.88
2022-09-10T20:11:33.589Z,101670.03
2022-09-10T20:14:02.514Z,101669.28
2022-09-10T20:16:29.296Z,101669.63
2022-09-10T20:18:55.767Z,101678.97
2022-09-10T20:21:25.705Z,101682.00
2022-09-10T20:23:55.545Z,101678.50
2022-09-10T20:26:23.568Z,101675.25
2022-09-10T20:28:58.363Z,101677.09
2022-09-10T20:31:27.330Z,101677.19
2022-09-10T20:33:56.432Z,101678.31
2022-09-10T20:36:25.154Z,101682.88
2022-09-10T20:38:53.141Z,101692.44
2022-09-10T20:41:20.235Z,101690.03
2022-09-10T20:43:53.237Z,101688.69
2022-09-10T20:46:22.358Z,101693.94
2022-09-10T20:48:50.757Z,101692.19
2022-09-10T20:51:18.574Z,101696.09
2022-09-10T20:53:45.514Z,101693.28
2022-09-10T20:56:14.766Z,101698.72
2022-09-10T20:58:41.502Z,101706.59
2022-09-10T21:01:17.027Z,101708.22
2022-09-10T21:03:43.632Z,101712.47
2022-09-10T21:06:12.650Z,101714.66
2022-09-10T21:08:42.745Z,101708.78
2022-09-10T21:11:12.901Z,101708.09
2022-09-10T21:13:56.824Z,101707.22
2022-09-10T21:16:28.474Z,101709.91
2022-09-10T21:18:58.115Z,101710.88
2022-09-10T21:21:26.972Z,101724.81
2022-09-10T21:23:56.006Z,101721.00
2022-09-10T21:26:25.484Z,101721.09
2022-09-10T21:28:53.960Z,101720.94
2022-09-10T21:31:20.389Z,101722.63
2022-09-10T21:33:46.772Z,101727.88
2022-09-10T21:36:16.427Z,101730.72
2022-09-10T21:38:49.669Z,101726.78
2022-09-10T21:41:18.737Z,101731.88
2022-09-10T21:43:47.408Z,101732.22
2022-09-10T21:46:14.985Z,101743.34
2022-09-10T21:48:42.428Z,101741.53
2022-09-10T21:51:13.718Z,101739.47
2022-09-10T21:53:41.180Z,101747.34
2022-09-10T21:56:08.522Z,101753.22
2022-09-10T21:58:37.050Z,101745.84
2022-09-10T22:01:12.310Z,101759.91
2022-09-10T22:03:39.233Z,101752.38
2022-09-10T22:06:07.873Z,101764.59
2022-09-10T22:08:35.518Z,101764.25
2022-09-10T22:11:10.325Z,101759.56
2022-09-10T22:13:37.890Z,101767.75
2022-09-10T22:16:06.183Z,101773.53
2022-09-10T22:18:34.161Z,101771.34
2022-09-10T22:21:00.943Z,101768.81
2022-09-10T22:23:29.210Z,101770.88
2022-09-10T22:26:03.027Z,101770.59
2022-09-10T22:28:34.295Z,101769.16
2022-09-10T22:31:13.197Z,101773.81
2022-09-10T22:33:42.384Z,101776.28
2022-09-10T22:36:20.805Z,101780.47
2022-09-10T22:38:52.242Z,101784.28
2022-09-10T22:41:19.064Z,101778.06
2022-09-10T22:43:45.968Z,101773.50
2022-09-10T22:46:12.903Z,101779.84
2022-09-10T22:48:42.455Z,101787.00
2022-09-10T22:51:20.746Z,101784.69
2022-09-10T22:53:48.049Z,101787.81
2022-09-10T22:56:17.619Z,101796.16
2022-09-10T22:58:45.631Z,101800.16
2022-09-10T23:01:14.697Z,101805.03
2022-09-10T23:03:42.730Z,101806.00
2022-09-10T23:06:12.722Z,101810.97
2022-09-10T23:08:39.735Z,101809.53
2022-09-10T23:11:24.269Z,101813.31
2022-09-10T23:13:58.517Z,101809.06
2022-09-10T23:16:28.785Z,101810.91
2022-09-10T23:18:56.770Z,101805.94
2022-09-10T23:21:25.237Z,101811.56
2022-09-10T23:23:54.968Z,101814.59
2022-09-10T23:26:22.822Z,101813.91
2022-09-10T23:28:49.805Z,101814.75
2022-09-10T23:31:27.726Z,101818.00
2022-09-10T23:33:55.194Z,101825.56
2022-09-10T23:36:22.297Z,101820.91
2022-09-10T23:38:48.853Z,101820.50
2022-09-10T23:41:18.088Z,101823.41
2022-09-10T23:43:45.397Z,101819.31
2022-09-10T23:46:12.495Z,101822.13
2022-09-10T23:48:40.074Z,101822.31
2022-09-10T23:51:06.680Z,101821.66
2022-09-10T23:53:33.672Z,101827.16
2022-09-10T23:56:02.723Z,101832.78
2022-09-10T23:58:29.671Z,101823.94
